createdAt,value
2024-05-09T05:00:32.483Z,9.90
2024-05-09T05:03:14.033Z,9.95
2024-05-09T05:05:44.964Z,9.95
2024-05-09T05:08:17.660Z,9.99
2024-05-09T05:10:47.173Z,10.07
2024-05-09T05:13:24.774Z,10.18
2024-05-09T05:18:41.496Z,10.24
2024-05-09T05:31:55.344Z,10.51
2024-05-09T05:34:22.770Z,10.57
2024-05-09T05:36:50.997Z,10.68
2024-05-09T05:39:18.155Z,10.79
2024-05-09T05:41:48.702Z,11.01
2024-05-09T05:44:16.433Z,11.24
2024-05-09T05:46:47.949Z,11.60
2024-05-09T05:49:18.272Z,12.03
2024-05-09T05:51:54.426Z,12.41
2024-05-09T05:54:23.214Z,12.76
2024-05-09T06:02:19.556Z,13.78
2024-05-09T06:04:49.914Z,13.91
2024-05-09T06:07:18.511Z,14.10
2024-05-09T06:09:54.145Z,14.24
2024-05-09T06:12:43.442Z,14.57
2024-05-09T06:19:35.154Z,15.56
2024-05-09T06:22:46.780Z,15.99
2024-05-09T06:25:51.657Z,15.99
2024-05-09T06:34:57.766Z,17.21
2024-05-09T06:37:26.875Z,17.36
2024-05-09T06:39:56.654Z,17.22
2024-05-09T06:42:28.892Z,17.46
2024-05-09T06:44:57.517Z,17.51
2024-05-09T06:47:25.187Z,17.96
2024-05-09T06:49:52.271Z,18.11
2024-05-09T06:52:20.167Z,18.11
2024-05-09T06:54:47.001Z,18.05
2024-05-09T06:57:14.494Z,18.31
2024-05-09T06:59:41.318Z,18.67
2024-05-09T07:02:08.995Z,19.01
2024-05-09T07:04:36.238Z,19.19
2024-05-09T07:07:04.704Z,19.10
2024-05-09T07:09:31.442Z,19.31
2024-05-09T07:11:59.029Z,19.81
2024-05-09T07:14:26.383Z,19.63
2024-05-09T07:16:54.011Z,19.59
2024-05-09T07:19:21.145Z,20.00
2024-05-09T07:21:48.557Z,19.95
2024-05-09T07:24:15.380Z,19.86
2024-05-09T07:26:42.834Z,20.20
2024-05-09T07:29:09.687Z,20.27
2024-05-09T07:31:39.539Z,20.03
2024-05-09T07:34:06.374Z,20.42
2024-05-09T07:36:33.866Z,20.38
2024-05-09T07:39:01.116Z,20.57
2024-05-09T07:41:29.331Z,20.66
2024-05-09T07:43:57.727Z,20.55
2024-05-09T07:47:20.348Z,20.63
2024-05-09T07:50:55.116Z,20.87
2024-05-09T07:53:26.961Z,21.16
2024-05-09T07:54:50.676Z,21.43
2024-05-09T07:57:19.225Z,21.33
2024-05-09T07:59:46.748Z,21.63
2024-05-09T08:02:15.033Z,21.26
2024-05-09T08:04:42.763Z,21.57
2024-05-09T08:07:11.055Z,21.60
2024-05-09T08:09:40.083Z,21.45
2024-05-09T08:12:10.263Z,21.79
2024-05-09T08:14:38.261Z,21.69
2024-05-09T08:17:07.708Z,21.61
2024-05-09T08:19:37.952Z,21.47
2024-05-09T08:22:07.396Z,21.53
2024-05-09T08:24:35.911Z,22.10
2024-05-09T08:27:06.136Z,22.06
2024-05-09T08:29:33.277Z,21.71
2024-05-09T08:32:01.149Z,21.45
2024-05-09T08:34:28.791Z,21.10
2024-05-09T08:36:57.723Z,21.07
2024-05-09T08:39:26.758Z,21.39
2024-05-09T08:41:54.321Z,21.68
2024-05-09T08:44:22.472Z,21.29
2024-05-09T08:46:54.170Z,21.16
2024-05-09T08:49:23.358Z,21.16
2024-05-09T08:51:51.170Z,20.91
2024-05-09T08:54:20.116Z,20.96
2024-05-09T08:56:49.177Z,20.93
2024-05-09T08:59:22.658Z,21.12
2024-05-09T09:01:51.281Z,21.56
2024-05-09T09:04:19.224Z,21.65
2024-05-09T09:06:46.935Z,21.54
2024-05-09T09:09:14.973Z,21.57
2024-05-09T09:11:41.892Z,21.72
2024-05-09T09:14:10.841Z,21.57
2024-05-09T09:16:38.050Z,21.86
2024-05-09T09:19:06.466Z,22.26
2024-05-09T09:21:35.255Z,22.32
2024-05-09T09:24:03.307Z,22.33
2024-05-09T09:26:33.481Z,22.12
2024-05-09T09:29:04.792Z,22.08
2024-05-09T09:34:13.818Z,22.50
2024-05-09T09:36:43.361Z,22.47
2024-05-09T09:39:13.056Z,22.34
2024-05-09T09:41:41.910Z,22.33
2024-05-09T09:44:10.103Z,21.96
2024-05-09T09:46:38.257Z,22.04
2024-05-09T09:49:07.674Z,21.91
2024-05-09T09:51:36.334Z,22.03
2024-05-09T09:54:05.839Z,21.96
2024-05-09T09:56:34.445Z,21.85
2024-05-09T09:59:05.050Z,21.86
2024-05-09T10:01:34.828Z,21.79
2024-05-09T10:04:04.593Z,22.12
2024-05-09T10:06:37.151Z,22.51
2024-05-09T10:09:05.159Z,22.43
2024-05-09T10:11:34.900Z,22.25
2024-05-09T10:14:05.014Z,22.33
2024-05-09T10:16:32.688Z,22.34
2024-05-09T10:19:00.199Z,22.26
2024-05-09T10:21:27.712Z,22.45
2024-05-09T10:24:07.440Z,22.53
2024-05-09T10:26:36.540Z,22.55
2024-05-09T10:29:14.593Z,22.69
2024-05-09T10:31:42.849Z,22.68
2024-05-09T10:34:20.932Z,22.86
2024-05-09T10:36:55.219Z,23.04
2024-05-09T10:39:23.519Z,22.99
2024-05-09T10:41:51.036Z,22.82
2024-05-09T10:44:18.994Z,22.62
2024-05-09T10:46:46.527Z,22.57
2024-05-09T10:49:18.226Z,22.70
2024-05-09T10:51:47.724Z,22.88
2024-05-09T10:54:16.247Z,22.81
2024-05-09T10:56:43.498Z,22.63
2024-05-09T10:59:13.511Z,22.41
2024-05-09T11:01:41.148Z,21.94
2024-05-09T11:04:08.847Z,21.95
2024-05-09T11:06:38.704Z,21.99
2024-05-09T11:09:06.564Z,22.08
2024-05-09T11:11:33.605Z,22.21
2024-05-09T11:14:00.704Z,22.19
2024-05-09T11:16:28.061Z,22.40
2024-05-09T11:18:57.217Z,22.68
2024-05-09T11:21:25.280Z,22.76
2024-05-09T11:23:52.789Z,22.76
2024-05-09T11:26:21.838Z,22.71
2024-05-09T11:28:51.033Z,22.68
2024-05-09T11:31:24.275Z,22.67
2024-05-09T11:33:54.837Z,22.92
2024-05-09T11:36:22.629Z,22.86
2024-05-09T11:38:49.612Z,23.13
2024-05-09T11:41:18.900Z,23.28
2024-05-09T11:43:46.008Z,23.18
2024-05-09T11:46:13.732Z,23.11
2024-05-09T11:48:41.211Z,23.21
2024-05-09T11:51:09.167Z,23.43
2024-05-09T11:53:36.074Z,23.43
2024-05-09T11:56:04.409Z,23.43
2024-05-09T11:58:34.947Z,23.33
2024-05-09T12:01:02.946Z,23.43
2024-05-09T12:03:30.873Z,23.16
2024-05-09T12:05:59.175Z,23.06
2024-05-09T12:08:26.581Z,22.97
2024-05-09T12:11:08.679Z,23.17
2024-05-09T12:13:47.333Z,23.54
2024-05-09T12:16:15.104Z,23.17
2024-05-09T12:18:42.367Z,22.85
2024-05-09T12:21:09.885Z,22.74
2024-05-09T12:23:36.935Z,22.99
2024-05-09T12:26:05.208Z,23.14
2024-05-09T12:28:32.759Z,23.31
2024-05-09T12:31:00.315Z,23.65
2024-05-09T12:33:27.301Z,23.83
2024-05-09T12:35:55.491Z,23.78
2024-05-09T12:38:22.465Z,23.77
2024-05-09T12:40:50.119Z,23.82
2024-05-09T12:43:18.643Z,23.96
2024-05-09T12:45:46.375Z,23.65
2024-05-09T12:48:14.344Z,23.39
2024-05-09T12:50:42.069Z,23.31
2024-05-09T12:53:10.018Z,23.18
2024-05-09T12:55:44.428Z,23.25
2024-05-09T12:58:22.887Z,23.25
2024-05-09T13:00:52.605Z,23.23
2024-05-09T13:03:20.359Z,23.22
2024-05-09T13:05:48.474Z,23.14
2024-05-09T13:08:26.916Z,23.28
2024-05-09T13:10:58.806Z,23.34
2024-05-09T13:13:26.390Z,23.24
2024-05-09T13:15:54.105Z,23.22
2024-05-09T13:18:24.242Z,23.02
2024-05-09T13:20:51.741Z,22.95
2024-05-09T13:23:18.488Z,23.27
2024-05-09T13:25:46.665Z,23.32
2024-05-09T13:28:13.790Z,23.30
2024-05-09T13:30:42.946Z,23.26
2024-05-09T13:33:12.000Z,23.52
2024-05-09T13:35:48.701Z,23.14
2024-05-09T13:38:21.495Z,23.10
2024-05-09T13:40:50.255Z,23.09
2024-05-09T13:43:18.474Z,22.66
2024-05-09T13:45:46.902Z,22.74
2024-05-09T13:48:14.188Z,22.96
2024-05-09T13:50:41.821Z,23.08
2024-05-09T13:53:09.178Z,23.19
2024-05-09T13:55:40.679Z,23.08
2024-05-09T13:58:08.717Z,22.67
2024-05-09T14:00:47.288Z,22.72
2024-05-09T14:03:18.704Z,22.70
2024-05-09T14:05:48.164Z,22.60
2024-05-09T14:08:15.988Z,22.60
2024-05-09T14:10:47.276Z,22.55
2024-05-09T14:13:14.952Z,22.37
2024-05-09T14:15:42.239Z,22.50
2024-05-09T14:18:13.566Z,22.54
2024-05-09T14:20:41.896Z,22.50
2024-05-09T14:23:10.084Z,22.08
2024-05-09T14:25:42.361Z,21.94
2024-05-09T14:28:11.971Z,21.82
2024-05-09T14:30:39.885Z,21.77
2024-05-09T14:33:08.936Z,21.75
2024-05-09T14:35:38.516Z,21.56
2024-05-09T14:38:07.913Z,21.32
2024-05-09T14:40:41.448Z,21.32
2024-05-09T14:43:12.857Z,21.22
2024-05-09T14:45:41.082Z,21.30
2024-05-09T14:48:10.018Z,21.33
2024-05-09T14:50:39.659Z,21.30
2024-05-09T14:53:11.218Z,21.27
2024-05-09T14:55:40.306Z,21.28
2024-05-09T14:58:13.379Z,21.29
2024-05-09T15:00:46.255Z,21.28
2024-05-09T15:03:18.659Z,21.29
2024-05-09T15:05:47.245Z,21.29
2024-05-09T15:08:16.711Z,21.12
2024-05-09T15:10:45.567Z,20.97
2024-05-09T15:13:16.232Z,20.71
2024-05-09T15:15:44.836Z,20.68
2024-05-09T15:18:13.669Z,20.52
2024-05-09T15:20:41.823Z,20.43
2024-05-09T15:23:09.500Z,20.46
2024-05-09T15:25:36.972Z,20.36
2024-05-09T15:28:08.173Z,20.30
2024-05-09T15:30:35.485Z,20.25
2024-05-09T15:33:07.145Z,20.17
2024-05-09T15:35:35.577Z,20.16
2024-05-09T15:38:03.791Z,20.08
2024-05-09T15:40:38.875Z,20.00
2024-05-09T15:43:10.537Z,20.02
2024-05-09T15:45:38.617Z,20.01
2024-05-09T15:48:08.201Z,20.09
2024-05-09T15:50:39.787Z,20.20
2024-05-09T15:53:10.256Z,20.27
2024-05-09T15:55:38.172Z,20.17
2024-05-09T15:58:07.110Z,20.10
2024-05-09T16:00:39.122Z,19.98
2024-05-09T16:03:10.800Z,19.96
2024-05-09T16:05:38.575Z,19.93
2024-05-09T16:08:07.016Z,19.89
2024-05-09T16:10:35.404Z,19.83
2024-05-09T16:13:03.429Z,19.83
2024-05-09T16:15:31.610Z,19.85
2024-05-09T16:17:58.713Z,19.90
2024-05-09T16:20:34.952Z,19.91
2024-05-09T16:23:08.140Z,19.91
2024-05-09T16:25:35.952Z,19.89
2024-05-09T16:28:06.293Z,19.88
2024-05-09T16:30:36.740Z,19.86
2024-05-09T16:33:05.248Z,19.86
2024-05-09T16:35:33.242Z,19.89
2024-05-09T16:38:02.609Z,19.91
2024-05-09T16:40:37.173Z,19.91
2024-05-09T16:43:08.190Z,19.86
2024-05-09T16:45:36.223Z,19.86
2024-05-09T16:48:03.234Z,19.86
2024-05-09T16:50:34.300Z,19.84
2024-05-09T16:53:04.338Z,19.79
2024-05-09T16:55:32.114Z,19.70
2024-05-09T16:57:59.137Z,19.63
2024-05-09T17:00:36.186Z,19.57
2024-05-09T17:03:15.993Z,19.48
2024-05-09T17:05:45.687Z,19.41
2024-05-09T17:08:15.545Z,19.35
2024-05-09T17:10:42.759Z,19.33
2024-05-09T17:13:10.407Z,19.25
2024-05-09T17:15:37.766Z,19.23
2024-05-09T17:18:10.174Z,19.15
2024-05-09T17:20:37.803Z,19.10
2024-05-09T17:23:15.315Z,19.06
2024-05-09T17:25:42.541Z,19.01
2024-05-09T17:28:11.103Z,18.99
2024-05-09T17:30:40.223Z,18.89
2024-05-09T17:33:10.386Z,18.85
2024-05-09T17:35:38.391Z,18.82
2024-05-09T17:38:06.697Z,18.80
2024-05-09T17:40:36.894Z,18.81
2024-05-09T17:43:06.781Z,18.85
2024-05-09T17:45:38.550Z,18.82
2024-05-09T17:48:06.690Z,18.83
2024-05-09T17:50:36.402Z,18.81
2024-05-09T17:53:06.363Z,18.79
2024-05-09T17:55:33.822Z,18.77
2024-05-09T17:58:01.434Z,18.72
2024-05-09T18:00:36.786Z,18.69
2024-05-09T18:03:08.555Z,18.68
2024-05-09T18:05:36.918Z,18.65
2024-05-09T18:08:06.038Z,18.61
2024-05-09T18:10:37.275Z,18.56
2024-05-09T18:13:10.804Z,18.58
2024-05-09T18:15:38.433Z,18.58
2024-05-09T18:18:06.696Z,18.52
2024-05-09T18:20:41.778Z,18.55
2024-05-09T18:23:16.767Z,18.52
2024-05-09T18:25:45.103Z,18.46
2024-05-09T18:28:12.145Z,18.42
2024-05-09T18:30:40.569Z,18.34
2024-05-09T18:33:10.256Z,18.23
2024-05-09T18:35:38.275Z,18.16
2024-05-09T18:38:05.587Z,18.06
2024-05-09T18:40:36.448Z,17.99
2024-05-09T18:43:07.155Z,17.95
2024-05-09T18:45:36.851Z,17.89
2024-05-09T18:48:05.875Z,17.85
2024-05-09T18:50:37.571Z,17.81
2024-05-09T18:53:08.471Z,17.73
2024-05-09T18:55:35.473Z,17.69
2024-05-09T18:58:03.907Z,17.61
2024-05-09T19:00:35.584Z,17.56
2024-05-09T19:03:12.030Z,17.51
2024-05-09T19:05:41.670Z,17.49
2024-05-09T19:08:09.920Z,17.47
2024-05-09T19:10:39.047Z,17.42
2024-05-09T19:13:11.035Z,17.35
2024-05-09T19:15:40.830Z,17.30
2024-05-09T19:18:08.595Z,17.21
2024-05-09T19:20:36.720Z,17.16
2024-05-09T19:23:06.480Z,17.10
2024-05-09T19:25:36.011Z,17.04
2024-05-09T19:28:04.256Z,16.99
2024-05-09T19:30:38.780Z,16.90
2024-05-09T19:33:11.130Z,16.87
2024-05-09T19:35:39.260Z,16.85
2024-05-09T19:38:06.507Z,16.81
2024-05-09T19:40:35.255Z,16.80
2024-05-09T19:43:03.606Z,16.75
2024-05-09T19:45:33.737Z,16.71
2024-05-09T19:48:01.731Z,16.64
2024-05-09T19:50:37.348Z,16.59
2024-05-09T19:53:10.814Z,16.54
2024-05-09T19:55:38.183Z,16.50
2024-05-09T19:58:07.129Z,16.47
2024-05-09T20:00:41.034Z,16.42
2024-05-09T20:03:11.891Z,16.39
2024-05-09T20:05:39.529Z,16.31
2024-05-09T20:08:07.066Z,16.31
2024-05-09T20:10:35.983Z,16.25
2024-05-09T20:13:08.557Z,16.26
2024-05-09T20:15:36.865Z,16.16
2024-05-09T20:18:05.276Z,16.10
2024-05-09T20:20:38.303Z,16.02
2024-05-09T20:23:09.886Z,15.95
2024-05-09T20:25:36.941Z,15.94
2024-05-09T20:28:04.828Z,15.95
